createdAt,value
2023-01-30T00:02:22.206Z,35.03
2023-01-30T00:04:55.633Z,34.25
2023-01-30T00:07:22.413Z,31.17
2023-01-30T00:09:55.431Z,31.02
2023-01-30T00:12:28.411Z,30.13
2023-01-30T00:15:01.427Z,30.02
2023-01-30T00:17:28.282Z,35.13
2023-01-30T00:19:55.047Z,28.83
2023-01-30T00:22:28.428Z,32.50
2023-01-30T00:24:55.304Z,32.00
2023-01-30T00:27:22.201Z,32.33
2023-01-30T00:30:02.820Z,28.80
2023-01-30T00:32:30.158Z,32.05
2023-01-30T00:35:03.447Z,33.03
2023-01-30T00:37:30.173Z,28.30
2023-01-30T00:40:03.502Z,31.77
2023-01-30T00:42:49.310Z,31.30
2023-01-30T00:45:42.497Z,27.58
2023-01-30T00:50:51.544Z,26.63
2023-01-30T00:53:18.399Z,29.95
2023-01-30T00:55:52.461Z,26.95
2023-01-30T00:58:19.580Z,30.02
2023-01-30T01:00:52.517Z,24.15
2023-01-30T01:03:19.769Z,19.67
2023-01-30T01:05:47.035Z,21.00
2023-01-30T01:08:20.500Z,20.48
2023-01-30T01:10:53.521Z,20.83
2023-01-30T01:13:20.374Z,22.30
2023-01-30T01:15:53.562Z,18.83
2023-01-30T01:18:20.363Z,22.92
2023-01-30T01:20:53.558Z,22.70
2023-01-30T01:23:20.296Z,21.10
2023-01-30T01:25:53.556Z,26.88
2023-01-30T01:28:22.215Z,21.70
2023-01-30T01:30:55.571Z,22.70
2023-01-30T01:33:29.561Z,24.35
2023-01-30T01:36:04.748Z,20.63
2023-01-30T01:38:31.760Z,18.92
2023-01-30T01:41:01.982Z,20.13
2023-01-30T01:43:57.571Z,25.08
2023-01-30T01:46:27.863Z,16.98
2023-01-30T01:49:04.596Z,22.95
2023-01-30T01:51:53.560Z,16.50
2023-01-30T01:55:08.639Z,19.95
2023-01-30T01:57:51.644Z,18.02
2023-01-30T02:00:20.734Z,22.75
2023-01-30T02:03:09.613Z,24.52
2023-01-30T02:05:42.238Z,18.10
2023-01-30T02:08:19.607Z,19.02
2023-01-30T02:11:14.093Z,17.92
2023-01-30T02:13:48.630Z,22.40
2023-01-30T02:16:15.648Z,18.17
2023-01-30T02:18:50.632Z,18.52
2023-01-30T02:21:29.639Z,20.17
2023-01-30T02:24:34.114Z,22.45
2023-01-30T02:27:34.623Z,17.98
2023-01-30T02:30:05.011Z,16.00
2023-01-30T02:33:08.635Z,15.05
2023-01-30T02:36:11.552Z,18.63
2023-01-30T02:41:38.076Z,19.00
2023-01-30T02:44:45.709Z,15.88
2023-01-30T02:47:19.254Z,17.70
2023-01-30T02:50:02.672Z,13.98
2023-01-30T02:52:30.129Z,16.17
2023-01-30T02:55:03.660Z,15.98
2023-01-30T02:57:30.604Z,16.45
2023-01-30T03:00:07.683Z,16.20
2023-01-30T03:02:43.440Z,14.98
2023-01-30T03:05:27.714Z,16.42
2023-01-30T03:08:31.689Z,15.60
2023-01-30T03:11:08.051Z,19.33
2023-01-30T03:14:18.756Z,12.02
2023-01-30T03:16:56.493Z,16.05
2023-01-30T03:19:29.722Z,22.00
2023-01-30T03:21:56.626Z,14.35
2023-01-30T03:24:30.687Z,16.30
2023-01-30T03:27:11.036Z,17.73
2023-01-30T03:29:44.751Z,18.92
2023-01-30T03:32:11.506Z,16.63
2023-01-30T03:34:38.343Z,17.35
2023-01-30T03:37:12.726Z,14.90
2023-01-30T03:39:45.740Z,19.17
2023-01-30T03:42:12.568Z,21.83
2023-01-30T03:44:45.719Z,20.83
2023-01-30T03:47:12.478Z,18.70
2023-01-30T03:49:39.236Z,22.55
2023-01-30T03:52:12.820Z,20.02
2023-01-30T03:54:45.873Z,16.52
2023-01-30T03:57:19.733Z,22.33
2023-01-30T03:59:59.803Z,23.85
2023-01-30T04:02:26.639Z,21.55
2023-01-30T04:04:53.898Z,19.98
2023-01-30T04:07:26.806Z,18.75
2023-01-30T04:09:53.566Z,19.55
2023-01-30T04:12:26.785Z,21.92
2023-01-30T04:14:53.544Z,17.23
2023-01-30T04:17:26.751Z,18.48
2023-01-30T04:19:59.799Z,22.05
2023-01-30T04:22:26.885Z,19.00
2023-01-30T04:24:59.841Z,16.85
2023-01-30T04:27:26.646Z,18.13
2023-01-30T04:29:53.399Z,22.05
2023-01-30T04:32:26.809Z,17.13
2023-01-30T04:34:59.828Z,15.88
2023-01-30T04:37:32.812Z,15.95
2023-01-30T04:39:59.677Z,18.05
2023-01-30T04:42:32.871Z,16.38
2023-01-30T04:45:01.066Z,13.48
2023-01-30T04:47:27.848Z,17.38
2023-01-30T04:50:00.836Z,14.85
2023-01-30T04:52:33.853Z,17.08
2023-01-30T04:55:00.701Z,15.77
2023-01-30T04:57:27.654Z,14.38
2023-01-30T05:00:00.882Z,13.32
2023-01-30T05:02:34.882Z,15.13
2023-01-30T05:05:01.731Z,14.23
2023-01-30T05:07:34.868Z,11.05
2023-01-30T05:10:02.938Z,14.45
2023-01-30T05:12:36.959Z,14.55
2023-01-30T05:15:04.022Z,15.18
2023-01-30T05:17:36.943Z,12.52
2023-01-30T05:20:05.611Z,16.42
2023-01-30T05:22:38.935Z,20.13
2023-01-30T05:25:12.870Z,13.25
2023-01-30T05:27:39.790Z,14.73
2023-01-30T05:30:13.938Z,18.73
2023-01-30T05:32:47.891Z,13.52
2023-01-30T05:35:21.007Z,18.52
2023-01-30T05:37:51.125Z,19.23
2023-01-30T05:40:24.903Z,22.75
2023-01-30T05:42:51.685Z,19.63
2023-01-30T05:45:18.806Z,17.13
2023-01-30T05:48:01.337Z,15.05
2023-01-30T05:50:29.036Z,22.20
2023-01-30T05:53:01.924Z,20.42
2023-01-30T05:55:28.664Z,22.67
2023-01-30T05:57:55.411Z,27.30
2023-01-30T06:00:28.977Z,22.58
2023-01-30T06:02:55.839Z,23.40
2023-01-30T06:05:29.069Z,30.27
2023-01-30T06:07:56.271Z,23.90
2023-01-30T06:10:23.158Z,22.98
2023-01-30T06:12:57.013Z,29.33
2023-01-30T06:15:23.840Z,25.75
2023-01-30T06:17:56.960Z,22.80
2023-01-30T06:20:29.964Z,29.40
2023-01-30T06:22:59.516Z,26.17
2023-01-30T06:25:34.147Z,25.95
2023-01-30T06:28:01.019Z,25.38
2023-01-30T06:30:27.921Z,37.60
2023-01-30T06:33:01.000Z,25.52
2023-01-30T06:35:34.049Z,27.17
2023-01-30T06:38:00.994Z,24.15
2023-01-30T06:40:34.022Z,25.33
2023-01-30T06:43:07.052Z,26.65
2023-01-30T06:45:34.121Z,29.20
2023-01-30T06:48:08.051Z,22.08
2023-01-30T06:50:35.201Z,25.60
2023-01-30T06:53:12.006Z,20.25
2023-01-30T06:55:39.006Z,26.27
2023-01-30T06:58:18.087Z,28.30
2023-01-30T07:00:51.033Z,26.25
2023-01-30T07:03:25.156Z,27.52
2023-01-30T07:05:58.025Z,24.35
2023-01-30T07:08:31.220Z,26.38
2023-01-30T07:10:59.984Z,21.85
2023-01-30T07:13:33.079Z,32.75
2023-01-30T07:16:06.099Z,24.08
2023-01-30T07:18:33.120Z,20.55
2023-01-30T07:21:06.083Z,28.77
2023-01-30T07:23:39.120Z,22.35
2023-01-30T07:26:06.677Z,23.48
2023-01-30T07:28:40.093Z,27.67
2023-01-30T07:31:06.854Z,26.00
2023-01-30T07:33:40.201Z,23.20
2023-01-30T07:36:07.312Z,29.25
2023-01-30T07:38:41.076Z,23.02
2023-01-30T07:41:07.941Z,22.60
2023-01-30T07:43:41.168Z,26.70
2023-01-30T07:46:08.082Z,24.70
2023-01-30T07:48:41.149Z,22.02
2023-01-30T07:51:14.121Z,29.33
2023-01-30T07:53:41.081Z,24.23
2023-01-30T07:56:21.112Z,21.67
2023-01-30T07:58:48.472Z,23.20
2023-01-30T08:01:22.186Z,22.95
2023-01-30T08:03:49.419Z,22.63
2023-01-30T08:06:23.394Z,21.42
2023-01-30T08:08:57.169Z,23.35
2023-01-30T08:11:30.169Z,27.55
2023-01-30T08:13:57.111Z,23.27
2023-01-30T08:16:30.317Z,22.02
2023-01-30T08:19:04.259Z,27.35
2023-01-30T08:21:31.109Z,21.48
2023-01-30T08:24:11.136Z,26.83
2023-01-30T08:26:44.262Z,21.70
2023-01-30T08:29:17.189Z,23.50
2023-01-30T08:31:50.248Z,24.50
2023-01-30T08:34:30.211Z,23.90
2023-01-30T08:36:57.011Z,23.42
2023-01-30T08:39:31.207Z,23.52
2023-01-30T08:42:04.231Z,25.65
2023-01-30T08:44:37.206Z,18.95
2023-01-30T08:47:10.225Z,22.33
2023-01-30T08:49:43.284Z,27.08
2023-01-30T08:52:10.695Z,24.73
2023-01-30T08:54:44.192Z,22.65
2023-01-30T08:57:11.184Z,24.65
2023-01-30T08:59:44.260Z,22.42
2023-01-30T09:02:12.529Z,17.55
2023-01-30T09:04:46.299Z,23.42
2023-01-30T09:07:13.116Z,27.13
2023-01-30T09:09:46.238Z,30.15
2023-01-30T09:12:19.352Z,29.88
2023-01-30T09:14:53.323Z,24.88
2023-01-30T09:17:20.257Z,24.38
2023-01-30T09:19:53.297Z,21.58
2023-01-30T09:22:29.253Z,32.05
2023-01-30T09:25:02.325Z,27.45
2023-01-30T09:27:29.334Z,21.83
2023-01-30T09:30:04.325Z,26.23
2023-01-30T09:32:38.348Z,20.00
2023-01-30T09:35:05.701Z,22.88
2023-01-30T09:37:39.378Z,23.88
2023-01-30T09:40:06.989Z,22.25
2023-01-30T09:43:04.405Z,27.63
2023-01-30T09:45:49.878Z,19.60
2023-01-30T09:48:45.341Z,22.65
2023-01-30T09:51:25.896Z,22.08
2023-01-30T09:54:05.353Z,20.35
2023-01-30T09:56:32.267Z,17.40
2023-01-30T09:59:09.393Z,23.73
2023-01-30T10:02:11.344Z,21.95
2023-01-30T10:05:00.558Z,25.63
2023-01-30T10:07:45.706Z,21.80
2023-01-30T10:10:25.385Z,21.23
2023-01-30T10:13:04.422Z,27.67
2023-01-30T10:15:45.444Z,26.05
2023-01-30T10:18:28.395Z,25.52
2023-01-30T10:21:07.387Z,24.75
2023-01-30T10:23:40.058Z,19.25
2023-01-30T10:26:21.419Z,24.98
2023-01-30T10:29:06.068Z,21.27
2023-01-30T10:31:50.426Z,23.13
2023-01-30T10:34:43.422Z,30.48
2023-01-30T10:37:49.401Z,25.25
2023-01-30T10:40:33.400Z,22.92
2023-01-30T10:43:13.258Z,25.67
2023-01-30T10:46:11.444Z,23.58
2023-01-30T10:49:02.869Z,21.52
2023-01-30T10:52:01.452Z,25.57
2023-01-30T10:54:46.490Z,24.83
2023-01-30T10:57:33.429Z,28.58
2023-01-30T11:00:43.419Z,22.65
2023-01-30T11:03:34.441Z,30.42
2023-01-30T11:06:11.686Z,26.73
2023-01-30T11:08:45.444Z,27.60
2023-01-30T11:11:30.804Z,24.45
2023-01-30T11:14:16.426Z,30.67
2023-01-30T11:16:50.682Z,27.83
2023-01-30T11:19:37.468Z,31.23
2023-01-30T11:22:05.965Z,30.10
2023-01-30T11:24:47.434Z,22.98
2023-01-30T11:27:27.564Z,33.10
2023-01-30T11:30:21.873Z,26.90
2023-01-30T11:32:56.533Z,21.75
2023-01-30T11:35:29.840Z,24.77
2023-01-30T11:38:19.506Z,28.88
2023-01-30T11:40:49.450Z,29.48
2023-01-30T11:43:22.477Z,26.30
2023-01-30T11:45:50.784Z,24.63
2023-01-30T11:48:33.086Z,33.35
2023-01-30T11:51:21.517Z,21.38
2023-01-30T11:53:59.747Z,28.92
2023-01-30T11:56:47.543Z,27.52
2023-01-30T11:59:29.041Z,21.90
2023-01-30T12:02:31.556Z,29.75
2023-01-30T12:05:05.307Z,23.20
2023-01-30T12:07:41.550Z,24.80
2023-01-30T12:10:29.888Z,22.67
2023-01-30T12:13:08.576Z,25.73
2023-01-30T12:15:44.557Z,25.35
2023-01-30T12:18:27.551Z,22.80
2023-01-30T12:21:10.399Z,29.92
2023-01-30T12:24:04.569Z,25.50
2023-01-30T12:26:35.853Z,26.60
2023-01-30T12:29:29.613Z,23.75
2023-01-30T12:32:11.857Z,25.75
2023-01-30T12:34:45.587Z,28.98
2023-01-30T12:37:42.585Z,20.63
2023-01-30T12:40:30.575Z,26.38
2023-01-30T12:43:00.310Z,24.30
2023-01-30T12:45:40.598Z,28.90
2023-01-30T12:48:43.997Z,28.02
2023-01-30T12:51:50.595Z,31.83
2023-01-30T12:54:34.606Z,26.33
2023-01-30T12:57:16.650Z,29.70
2023-01-30T12:59:57.709Z,24.80
2023-01-30T13:03:04.718Z,26.67
2023-01-30T13:06:02.667Z,29.67
2023-01-30T13:08:43.640Z,26.08
2023-01-30T13:11:48.118Z,27.35
2023-01-30T13:14:44.650Z,28.15
2023-01-30T13:17:51.640Z,29.27
2023-01-30T13:20:18.805Z,32.67
2023-01-30T13:23:05.666Z,26.55
2023-01-30T13:25:47.343Z,21.90
2023-01-30T13:28:25.658Z,28.63
2023-01-30T13:30:55.658Z,25.40
2023-01-30T13:33:44.828Z,26.85
2023-01-30T13:36:20.722Z,27.85
2023-01-30T13:39:23.698Z,29.45
2023-01-30T13:41:55.938Z,24.20
2023-01-30T13:44:40.828Z,29.58
2023-01-30T13:47:24.038Z,34.50
2023-01-30T13:50:13.709Z,27.50
2023-01-30T13:52:52.879Z,24.92
2023-01-30T13:55:34.708Z,30.73
2023-01-30T13:58:10.737Z,31.00
2023-01-30T14:00:44.814Z,31.52
2023-01-30T14:03:13.521Z,28.70
2023-01-30T14:05:59.723Z,29.48
2023-01-30T14:08:57.707Z,23.48
2023-01-30T14:11:53.783Z,28.27
2023-01-30T14:14:32.737Z,24.08
2023-01-30T14:17:21.773Z,24.00
2023-01-30T14:20:31.761Z,27.67
2023-01-30T14:23:06.808Z,21.92
2023-01-30T14:25:43.588Z,34.45
2023-01-30T14:28:16.749Z,24.83
2023-01-30T14:31:01.813Z,28.10
2023-01-30T14:33:33.377Z,32.25
2023-01-30T14:36:09.741Z,30.63
2023-01-30T14:38:41.561Z,25.05
2023-01-30T14:41:31.751Z,30.33
2023-01-30T14:43:58.570Z,25.33
2023-01-30T14:46:31.838Z,20.65
2023-01-30T14:49:27.829Z,30.85
2023-01-30T14:51:56.226Z,35.13
2023-01-30T14:54:41.800Z,27.55
2023-01-30T14:57:26.819Z,23.20
2023-01-30T15:00:16.489Z,24.15
2023-01-30T15:03:03.804Z,26.85
2023-01-30T15:05:45.958Z,22.98
2023-01-30T15:08:29.778Z,40.35
2023-01-30T15:11:18.924Z,29.10
2023-01-30T15:14:18.807Z,29.08
2023-01-30T15:17:21.832Z,30.60
2023-01-30T15:23:10.869Z,22.33
2023-01-30T15:25:49.853Z,32.40
2023-01-30T15:28:37.836Z,28.17
2023-01-30T15:31:14.211Z,28.52
2023-01-30T15:33:58.857Z,31.98
2023-01-30T15:36:33.319Z,28.63
2023-01-30T15:39:09.974Z,30.52
2023-01-30T15:41:44.852Z,27.48
2023-01-30T15:44:23.799Z,35.58
2023-01-30T15:47:15.936Z,29.13
2023-01-30T15:50:09.891Z,29.98
2023-01-30T15:52:55.901Z,32.70
2023-01-30T15:55:36.895Z,26.45
2023-01-30T15:58:20.920Z,30.02
2023-01-30T16:00:50.640Z,28.90
2023-01-30T16:03:30.924Z,28.77
2023-01-30T16:05:58.549Z,26.65
2023-01-30T16:08:37.917Z,28.65
2023-01-30T16:11:04.919Z,30.00
2023-01-30T16:13:40.075Z,25.23
2023-01-30T16:16:15.012Z,22.60
2023-01-30T16:19:03.915Z,24.15
2023-01-30T16:21:40.234Z,19.80
2023-01-30T16:24:38.936Z,22.15
2023-01-30T16:27:22.940Z,14.15
2023-01-30T16:29:53.198Z,19.73
2023-01-30T16:32:34.922Z,19.17
2023-01-30T16:35:26.965Z,15.23
2023-01-30T16:38:04.173Z,15.57
2023-01-30T16:40:58.969Z,17.88
2023-01-30T16:43:32.920Z,13.45
2023-01-30T16:46:44.951Z,16.75
2023-01-30T16:49:27.033Z,15.05
2023-01-30T16:52:02.549Z,17.58
2023-01-30T16:54:38.966Z,23.73
2023-01-30T16:57:06.123Z,23.67
2023-01-30T16:59:42.013Z,24.00
2023-01-30T17:02:28.207Z,28.08
2023-01-30T17:05:03.031Z,23.15
2023-01-30T17:07:43.968Z,19.00
2023-01-30T17:10:37.911Z,20.70
2023-01-30T17:13:12.009Z,23.27
2023-01-30T17:15:39.048Z,16.65
2023-01-30T17:18:16.072Z,14.27
2023-01-30T17:20:47.655Z,14.15
2023-01-30T17:23:24.982Z,15.18
2023-01-30T17:25:51.857Z,22.50
2023-01-30T17:28:21.679Z,20.35
2023-01-30T17:30:57.091Z,16.45
2023-01-30T17:33:25.843Z,22.27
2023-01-30T17:35:59.051Z,17.90
2023-01-30T17:38:25.857Z,19.27
2023-01-30T17:40:52.648Z,18.48
2023-01-30T17:43:26.099Z,15.98
2023-01-30T17:45:52.971Z,14.93
2023-01-30T17:48:26.047Z,21.27
2023-01-30T17:50:52.896Z,20.13
2023-01-30T17:53:26.179Z,12.57
2023-01-30T17:55:53.006Z,16.20
2023-01-30T17:58:20.080Z,14.60
2023-01-30T18:00:53.110Z,15.73
2023-01-30T18:03:26.082Z,10.95
2023-01-30T18:05:52.910Z,14.10
2023-01-30T18:08:26.076Z,8.77
2023-01-30T18:10:52.945Z,15.43
2023-01-30T18:13:27.095Z,20.75
2023-01-30T18:16:03.369Z,17.23
2023-01-30T18:18:37.176Z,22.67
2023-01-30T18:21:10.137Z,13.80
2023-01-30T18:23:37.354Z,14.68
2023-01-30T18:26:12.172Z,21.77
2023-01-30T18:28:39.969Z,30.73
2023-01-30T18:31:15.529Z,24.83
2023-01-30T18:33:51.156Z,28.95
2023-01-30T18:36:20.263Z,27.02
2023-01-30T18:38:54.272Z,20.60
2023-01-30T18:41:30.137Z,25.55
2023-01-30T18:43:59.577Z,17.52
2023-01-30T18:46:34.288Z,16.35
2023-01-30T18:49:01.423Z,27.45
2023-01-30T18:51:34.096Z,17.98
2023-01-30T18:54:08.153Z,18.98
2023-01-30T18:56:35.335Z,14.52
2023-01-30T18:59:05.144Z,14.98
2023-01-30T19:01:42.275Z,24.05
2023-01-30T19:04:10.892Z,19.73
2023-01-30T19:06:46.192Z,23.20
2023-01-30T19:09:21.132Z,19.38
2023-01-30T19:12:13.171Z,19.67
2023-01-30T19:14:47.213Z,23.17
2023-01-30T19:17:16.325Z,14.27
2023-01-30T19:19:50.219Z,18.77
2023-01-30T19:22:30.197Z,20.23
2023-01-30T19:25:03.263Z,20.63
2023-01-30T19:27:30.127Z,18.45
2023-01-30T19:30:11.207Z,13.38
2023-01-30T19:32:38.100Z,19.50
2023-01-30T19:35:12.177Z,17.25
2023-01-30T19:37:46.268Z,15.93
2023-01-30T19:40:13.215Z,18.15
2023-01-30T19:42:43.863Z,14.95
2023-01-30T19:45:18.325Z,16.90
2023-01-30T19:47:45.193Z,15.35
2023-01-30T19:50:19.626Z,26.10
2023-01-30T19:52:47.375Z,13.43
2023-01-30T19:55:18.575Z,15.40
2023-01-30T19:57:52.289Z,17.85
2023-01-30T20:00:26.274Z,15.43
2023-01-30T20:02:59.326Z,23.02
2023-01-30T20:05:26.175Z,16.27
2023-01-30T20:08:00.253Z,16.80
2023-01-30T20:10:30.360Z,21.65
2023-01-30T20:13:19.154Z,16.73
2023-01-30T20:19:19.263Z,20.83
2023-01-30T20:21:58.200Z,17.58
2023-01-30T20:24:27.976Z,22.35
2023-01-30T20:27:38.681Z,13.80
2023-01-30T20:30:56.771Z,17.25
2023-01-30T20:33:30.627Z,22.58
2023-01-30T20:36:19.971Z,18.80
2023-01-30T20:38:55.627Z,17.30
2023-01-30T20:41:27.061Z,22.60
2023-01-30T20:46:52.422Z,23.13
2023-01-30T20:49:43.711Z,17.73
2023-01-30T20:52:56.790Z,20.05
2023-01-30T20:55:37.331Z,17.95
2023-01-30T20:58:23.370Z,13.75
2023-01-30T21:01:03.569Z,17.70
2023-01-30T21:03:55.829Z,20.00
2023-01-30T21:06:47.036Z,18.77
2023-01-30T21:14:58.409Z,19.10
2023-01-30T21:17:31.375Z,19.70
2023-01-30T21:19:58.263Z,20.75
2023-01-30T21:22:25.137Z,15.98
2023-01-30T21:24:58.392Z,16.50
2023-01-30T21:27:31.435Z,14.23
2023-01-30T21:29:58.268Z,12.63
2023-01-30T21:32:32.393Z,13.25
2023-01-30T21:34:59.565Z,11.20
2023-01-30T21:37:51.455Z,16.73
2023-01-30T21:40:44.213Z,16.08
2023-01-30T21:43:20.436Z,10.05
2023-01-30T21:45:47.514Z,16.67
2023-01-30T21:48:20.455Z,16.45
2023-01-30T21:50:54.409Z,12.25
2023-01-30T21:53:21.292Z,19.38
2023-01-30T21:55:59.509Z,18.40
2023-01-30T21:58:31.246Z,12.07
2023-01-30T22:01:14.502Z,14.00
2023-01-30T22:03:41.646Z,9.45
2023-01-30T22:06:16.495Z,18.08
2023-01-30T22:08:43.472Z,12.30
2023-01-30T22:11:19.564Z,12.70
2023-01-30T22:13:47.612Z,10.77
2023-01-30T22:16:23.493Z,14.23
2023-01-30T22:18:55.759Z,9.88
2023-01-30T22:21:31.550Z,17.98
2023-01-30T22:23:59.021Z,16.90
2023-01-30T22:26:33.489Z,14.32
2023-01-30T22:29:02.288Z,14.95
2023-01-30T22:31:40.877Z,13.45
2023-01-30T22:34:07.875Z,15.80
2023-01-30T22:36:41.546Z,15.30
2023-01-30T22:39:08.519Z,11.20
2023-01-30T22:41:42.540Z,9.00
2023-01-30T22:44:10.167Z,9.80
2023-01-30T22:46:45.545Z,8.52
2023-01-30T22:49:12.390Z,7.07
2023-01-30T22:51:47.573Z,10.40
2023-01-30T22:54:25.027Z,9.95
2023-01-30T22:56:52.665Z,11.60
2023-01-30T22:59:26.547Z,11.43
2023-01-30T23:01:59.577Z,11.63
2023-01-30T23:04:26.571Z,10.98
2023-01-30T23:07:01.610Z,14.90
2023-01-30T23:09:28.480Z,10.60
2023-01-30T23:12:22.538Z,6.63
2023-01-30T23:14:49.362Z,11.10
2023-01-30T23:17:41.536Z,14.18
2023-01-30T23:20:09.365Z,9.93
2023-01-30T23:22:42.547Z,12.10
2023-01-30T23:25:10.742Z,16.48
2023-01-30T23:27:37.817Z,16.10
2023-01-30T23:30:11.555Z,8.38
2023-01-30T23:32:44.556Z,7.25
2023-01-30T23:35:11.393Z,9.60
2023-01-30T23:38:03.590Z,6.60
2023-01-30T23:40:30.435Z,4.03
2023-01-30T23:42:57.356Z,6.13
2023-01-30T23:45:33.607Z,7.90
2023-01-30T23:48:00.601Z,7.45
2023-01-30T23:50:33.615Z,9.45
2023-01-30T23:53:06.617Z,8.57
2023-01-30T23:55:33.935Z,9.25
2023-01-30T23:58:00.742Z,10.32
